ECPPN LEZL-LEZL

Flight info

Callsign ECPPN
Flight time 0h 31m
Altitude 4999
Route VISUAL
Aircraft CA25/L-ICAO/7000

Departure

Time 2026-04-26 09:05
Airport Seville Airport (LEZL)

Arrival

Time 2026-04-26 09:36
Airport Seville Airport (LEZL)
Time Latitude Longitude Altitude Speed Heading
2026-04-26 08:45 37.42129 -5.90648 62 ft 0 kts 89°
2026-04-26 09:02 37.42129 -5.90647 92 ft 1 kts 89°
2026-04-26 09:02 37.42117 -5.90595 89 ft 11 kts 134°
2026-04-26 09:02 37.42046 -5.90539 89 ft 11 kts 122°
2026-04-26 09:02 37.41982 -5.90550 89 ft 16 kts 256°
2026-04-26 09:03 37.41978 -5.90704 88 ft 18 kts 271°
2026-04-26 09:03 37.41978 -5.90860 87 ft 15 kts 265°
2026-04-26 09:03 37.41957 -5.90971 86 ft 14 kts 245°
2026-04-26 09:03 37.41897 -5.91097 85 ft 19 kts 237°
2026-04-26 09:04 37.41803 -5.91162 87 ft 15 kts 131°
2026-04-26 09:04 37.41801 -5.90965 91 ft 45 kts 95°
2026-04-26 09:04 37.41793 -5.90388 189 ft 76 kts 88°
2026-04-26 09:04 37.41783 -5.89672 451 ft 87 kts 89°
2026-04-26 09:05 37.41819 -5.88864 770 ft 96 kts 84°
2026-04-26 09:05 37.41884 -5.88297 889 ft 103 kts 78°
2026-04-26 09:05 37.42284 -5.87266 978 ft 103 kts 34°
2026-04-26 09:05 37.43004 -5.87144 993 ft 108 kts 357°
2026-04-26 09:06 37.43743 -5.87395 930 ft 113 kts 345°
2026-04-26 09:06 37.44455 -5.87793 862 ft 111 kts 337°
2026-04-26 09:06 37.45086 -5.88333 817 ft 109 kts 329°
2026-04-26 09:06 37.45534 -5.89082 764 ft 110 kts 287°
2026-04-26 09:07 37.45597 -5.89713 750 ft 105 kts 274°
2026-04-26 09:07 37.45627 -5.90664 708 ft 110 kts 284°
2026-04-26 09:07 37.45977 -5.91514 740 ft 113 kts 317°
2026-04-26 09:07 37.46522 -5.92289 762 ft 121 kts 319°
2026-04-26 09:08 37.47167 -5.93010 737 ft 129 kts 337°
2026-04-26 09:08 37.48036 -5.93208 726 ft 127 kts 11°
2026-04-26 09:08 37.48880 -5.92947 742 ft 124 kts 28°
2026-04-26 09:08 37.49663 -5.92521 875 ft 122 kts 28°
2026-04-26 09:09 37.50416 -5.92032 943 ft 126 kts 32°
2026-04-26 09:09 37.51203 -5.91443 957 ft 132 kts 36°
2026-04-26 09:09 37.51947 -5.90763 1010 ft 137 kts 38°
2026-04-26 09:09 37.52707 -5.90014 1044 ft 139 kts 40°
2026-04-26 09:10 37.53440 -5.89233 1041 ft 140 kts 43°
2026-04-26 09:10 37.54193 -5.88497 1162 ft 137 kts 40°
2026-04-26 09:10 37.54952 -5.87758 1187 ft 137 kts 38°
2026-04-26 09:10 37.55734 -5.87076 1333 ft 138 kts 37°
2026-04-26 09:11 37.56571 -5.86429 1255 ft 142 kts 34°
2026-04-26 09:11 37.57425 -5.85824 1265 ft 140 kts 32°
2026-04-26 09:11 37.58278 -5.85276 1297 ft 137 kts 31°
2026-04-26 09:11 37.59137 -5.84701 1290 ft 143 kts 32°
2026-04-26 09:12 37.59997 -5.84097 1347 ft 141 kts 34°
2026-04-26 09:12 37.60816 -5.83437 1441 ft 141 kts 38°
2026-04-26 09:12 37.61609 -5.82702 1456 ft 141 kts 39°
2026-04-26 09:12 37.62397 -5.81982 1567 ft 138 kts 37°
2026-04-26 09:13 37.63182 -5.81267 1633 ft 140 kts 38°
2026-04-26 09:13 37.64025 -5.80642 1746 ft 144 kts 21°
2026-04-26 09:13 37.65041 -5.80794 1627 ft 165 kts 336°
2026-04-26 09:13 37.65942 -5.81621 1808 ft 153 kts 323°
2026-04-26 09:14 37.66740 -5.82511 1954 ft 155 kts 320°
2026-04-26 09:14 37.67532 -5.83465 1989 ft 156 kts 319°
2026-04-26 09:14 37.68308 -5.84371 2162 ft 153 kts 321°
2026-04-26 09:14 37.69087 -5.85298 2189 ft 155 kts 319°
2026-04-26 09:15 37.69875 -5.86239 2247 ft 155 kts 319°
2026-04-26 09:15 37.70677 -5.87129 2360 ft 152 kts 323°
2026-04-26 09:15 37.71488 -5.87975 2433 ft 152 kts 324°
2026-04-26 09:15 37.72305 -5.88827 2492 ft 152 kts 323°
2026-04-26 09:16 37.73114 -5.89713 2633 ft 155 kts 322°
2026-04-26 09:16 37.73929 -5.90599 2720 ft 155 kts 322°
2026-04-26 09:16 37.74726 -5.91506 2785 ft 155 kts 314°
2026-04-26 09:16 37.75307 -5.92656 2863 ft 156 kts 297°
2026-04-26 09:17 37.75732 -5.93913 2918 ft 155 kts 297°
2026-04-26 09:17 37.76277 -5.95077 2965 ft 153 kts 310°
2026-04-26 09:17 37.76920 -5.96141 2992 ft 154 kts 296°
2026-04-26 09:17 37.77178 -5.97454 3010 ft 156 kts 281°
2026-04-26 09:18 37.77410 -5.98800 3009 ft 158 kts 284°
2026-04-26 09:18 37.77642 -6.00151 3021 ft 159 kts 284°
2026-04-26 09:18 37.77931 -6.01481 3018 ft 157 kts 286°
2026-04-26 09:18 37.78269 -6.02779 2988 ft 154 kts 290°
2026-04-26 09:19 37.78647 -6.04040 3005 ft 152 kts 296°
2026-04-26 09:19 37.79134 -6.05205 3104 ft 149 kts 299°
2026-04-26 09:19 37.79611 -6.06359 3190 ft 149 kts 299°
2026-04-26 09:19 37.80028 -6.07570 3251 ft 151 kts 296°
2026-04-26 09:20 37.80455 -6.08791 3310 ft 153 kts 289°
2026-04-26 09:20 37.80706 -6.10093 3349 ft 153 kts 282°
2026-04-26 09:20 37.80857 -6.11424 3390 ft 154 kts 268°
2026-04-26 09:20 37.80595 -6.12725 3429 ft 153 kts 244°
2026-04-26 09:21 37.80121 -6.13927 3488 ft 152 kts 239°
2026-04-26 09:21 37.79634 -6.15115 3554 ft 153 kts 239°
2026-04-26 09:21 37.79121 -6.16300 3622 ft 154 kts 239°
2026-04-26 09:21 37.78626 -6.17475 3669 ft 153 kts 238°
2026-04-26 09:22 37.78097 -6.18642 3739 ft 153 kts 237°
2026-04-26 09:22 37.77542 -6.19798 3796 ft 155 kts 233°
2026-04-26 09:22 37.76920 -6.20898 3850 ft 153 kts 230°
2026-04-26 09:22 37.76223 -6.21896 3901 ft 151 kts 214°
2026-04-26 09:23 37.75328 -6.22552 3946 ft 148 kts 201°
2026-04-26 09:23 37.74401 -6.23100 3985 ft 147 kts 199°
2026-04-26 09:23 37.73439 -6.23550 4046 ft 148 kts 194°
2026-04-26 09:23 37.72451 -6.23953 4033 ft 148 kts 191°
2026-04-26 09:24 37.71476 -6.24230 3978 ft 140 kts 187°
2026-04-26 09:24 37.70525 -6.24422 3868 ft 138 kts 182°
2026-04-26 09:24 37.69570 -6.24507 3728 ft 137 kts 175°
2026-04-26 09:24 37.68614 -6.24446 3569 ft 141 kts 169°
2026-04-26 09:25 37.67637 -6.24266 3442 ft 144 kts 167°
2026-04-26 09:25 37.66647 -6.24032 3295 ft 145 kts 163°
2026-04-26 09:25 37.65681 -6.23702 3155 ft 146 kts 160°
2026-04-26 09:25 37.64704 -6.23351 3009 ft 149 kts 158°
2026-04-26 09:26 37.63728 -6.22922 2904 ft 147 kts 155°
2026-04-26 09:26 37.62775 -6.22438 2760 ft 148 kts 151°
2026-04-26 09:26 37.61835 -6.21903 2633 ft 147 kts 150°
2026-04-26 09:26 37.60920 -6.21339 2472 ft 147 kts 149°
2026-04-26 09:27 37.60025 -6.20725 2350 ft 147 kts 146°
2026-04-26 09:27 37.59171 -6.20049 2223 ft 145 kts 143°
2026-04-26 09:27 37.58374 -6.19331 2152 ft 142 kts 141°
2026-04-26 09:27 37.57589 -6.18594 2116 ft 141 kts 140°
2026-04-26 09:28 37.56812 -6.17860 2093 ft 138 kts 138°
2026-04-26 09:28 37.56088 -6.17023 1904 ft 143 kts 131°
2026-04-26 09:28 37.55424 -6.16148 1955 ft 137 kts 129°
2026-04-26 09:28 37.54766 -6.15307 1999 ft 132 kts 130°
2026-04-26 09:29 37.54097 -6.14510 2011 ft 130 kts 134°
2026-04-26 09:29 37.53429 -6.13756 2078 ft 130 kts 135°
2026-04-26 09:29 37.52705 -6.13041 2029 ft 135 kts 140°
2026-04-26 09:29 37.51949 -6.12342 1949 ft 138 kts 139°
2026-04-26 09:30 37.51187 -6.11591 1884 ft 139 kts 136°
2026-04-26 09:30 37.50485 -6.10747 1763 ft 137 kts 128°
2026-04-26 09:30 37.49836 -6.09910 1714 ft 133 kts 129°
2026-04-26 09:30 37.49164 -6.09061 1542 ft 139 kts 131°
2026-04-26 09:31 37.48498 -6.08198 1409 ft 139 kts 133°
2026-04-26 09:31 37.47713 -6.07471 1369 ft 141 kts 143°
2026-04-26 09:31 37.46891 -6.06797 1307 ft 142 kts 142°
2026-04-26 09:31 37.46103 -6.06105 1202 ft 133 kts 142°
2026-04-26 09:32 37.45374 -6.05474 1104 ft 122 kts 139°
2026-04-26 09:32 37.44711 -6.04868 999 ft 118 kts 137°
2026-04-26 09:32 37.44043 -6.04253 1049 ft 121 kts 140°
2026-04-26 09:32 37.43353 -6.03547 987 ft 135 kts 134°
2026-04-26 09:33 37.42664 -6.02680 866 ft 143 kts 131°
2026-04-26 09:33 37.42005 -6.01741 850 ft 142 kts 123°
2026-04-26 09:33 37.41780 -6.00576 838 ft 141 kts 83°
2026-04-26 09:33 37.41903 -5.99415 974 ft 128 kts 83°
2026-04-26 09:34 37.41924 -5.98307 1048 ft 125 kts 92°
2026-04-26 09:34 37.41808 -5.97244 926 ft 122 kts 94°
2026-04-26 09:34 37.41764 -5.96244 744 ft 106 kts 85°
2026-04-26 09:34 37.41780 -5.95336 552 ft 103 kts 84°
2026-04-26 09:35 37.41776 -5.94449 427 ft 99 kts 83°
2026-04-26 09:35 37.41780 -5.93538 340 ft 108 kts 86°
2026-04-26 09:35 37.41775 -5.92573 289 ft 107 kts 88°
2026-04-26 09:35 37.41781 -5.91749 172 ft 88 kts 84°
2026-04-26 09:36 37.41787 -5.91020 116 ft 75 kts 85°
2026-04-26 09:36 37.41789 -5.90441 96 ft 57 kts 85°
2026-04-26 09:36 37.41793 -5.90046 95 ft 27 kts 101°
2026-04-26 09:36 37.41807 -5.89887 95 ft 15 kts 53°
2026-04-26 09:37 37.41892 -5.89839 93 ft 14 kts 343°
2026-04-26 09:37 37.41978 -5.89913 92 ft 18 kts 275°
2026-04-26 09:37 37.41997 -5.90080 92 ft 19 kts 313°
2026-04-26 09:37 37.42046 -5.90228 90 ft 22 kts 270°
2026-04-26 09:38 37.42052 -5.90394 90 ft 15 kts 275°
2026-04-26 09:38 37.42097 -5.90506 91 ft 13 kts 317°
2026-04-26 09:38 37.42110 -5.90527 91 ft 0 kts 274°
2026-04-26 09:50 37.42110 -5.90526 89 ft 0 kts 274°
2026-04-26 10:05 37.42110 -5.90525 89 ft 0 kts 274°
2026-04-26 10:18 37.42110 -5.90524 89 ft 0 kts 274°